Time;durP1;ratioP1;P1;durP2;ratioP2;P2;SDS_P1;SDS_P2;PMS_P1;PMS_P2;Temp;Humidity;BMP_temperature;BMP_pressure;BME280_temperature;BME280_humidity;BME280_pressure;Samples;Min_cycle;Max_cycle;Signal;HPM_P1;HPM_P2
2023/02/18 00:02:19;;;;;;;69.00;36.20;;;;;;;6.32;60.29;100607.41;108165;1286;21987;-64
2023/02/18 00:04:45;;;;;;;74.00;37.10;;;;;;;6.37;59.53;100603.10;108229;1286;22022;-64
2023/02/18 00:07:11;;;;;;;64.70;34.20;;;;;;;6.43;59.47;100594.96;108293;1285;21989;-61
2023/02/18 00:09:38;;;;;;;71.10;36.60;;;;;;;6.49;59.04;100588.38;108249;1279;22024;-65
2023/02/18 00:12:05;;;;;;;81.00;40.40;;;;;;;6.54;59.47;100584.76;108152;1286;21990;-64
2023/02/18 00:14:31;;;;;;;87.40;40.60;;;;;;;6.61;59.14;100584.46;108164;1286;22032;-61
2023/02/18 00:16:57;;;;;;;160.90;62.40;;;;;;;6.66;59.34;100579.27;108155;1275;22014;-64
2023/02/18 00:19:23;;;;;;;153.20;63.60;;;;;;;6.72;59.12;100571.64;108099;1279;21989;-61
2023/02/18 00:21:49;;;;;;;84.40;41.30;;;;;;;6.78;59.44;100567.48;108092;1285;21996;-62
2023/02/18 00:24:15;;;;;;;67.80;34.10;;;;;;;6.82;59.68;100565.23;108231;1285;21987;-62
2023/02/18 00:26:40;;;;;;;60.40;31.00;;;;;;;6.86;59.44;100559.16;108145;1285;21996;-63
2023/02/18 00:29:06;;;;;;;59.60;30.90;;;;;;;6.89;60.09;100555.34;108148;1286;21994;-59
2023/02/18 00:31:34;;;;;;;57.60;31.10;;;;;;;6.90;60.44;100550.98;108175;1274;21992;-60
2023/02/18 00:34:00;;;;;;;56.80;30.20;;;;;;;6.93;60.97;100549.60;108249;1285;22026;-65
2023/02/18 00:36:26;;;;;;;59.90;31.20;;;;;;;6.93;61.13;100543.84;108191;1286;21988;-60
2023/02/18 00:38:53;;;;;;;63.50;31.90;;;;;;;6.93;60.48;100537.75;108241;1278;21990;-61
2023/02/18 00:41:20;;;;;;;59.40;30.40;;;;;;;6.96;60.17;100532.69;108182;1274;21987;-61
2023/02/18 00:43:46;;;;;;;61.30;31.50;;;;;;;6.97;60.26;100524.50;108135;1286;22009;-61
2023/02/18 00:46:12;;;;;;;53.40;29.20;;;;;;;6.99;59.94;100527.48;108372;1284;21996;-65
2023/02/18 00:48:38;;;;;;;51.20;28.10;;;;;;;6.99;59.97;100525.05;108121;1280;22030;-61
2023/02/18 00:51:04;;;;;;;59.90;31.10;;;;;;;7.00;59.84;100516.15;108155;1286;21993;-63
2023/02/18 00:53:30;;;;;;;50.40;29.20;;;;;;;7.01;59.64;100507.77;108161;1285;22676;-66
2023/02/18 00:55:55;;;;;;;50.50;27.90;;;;;;;7.01;60.38;100504.81;108160;1280;21988;-63
2023/02/18 00:58:21;;;;;;;56.20;30.00;;;;;;;7.02;60.21;100499.75;108102;1285;21996;-62
2023/02/18 01:00:47;;;;;;;48.90;28.00;;;;;;;7.04;60.06;100500.45;108090;1285;22179;-65
2023/02/18 01:03:13;;;;;;;48.40;26.50;;;;;;;7.06;59.71;100494.89;108258;1285;21953;-61
2023/02/18 01:05:40;;;;;;;40.90;23.40;;;;;;;7.06;59.95;100486.69;108251;1285;22458;-65
2023/02/18 01:08:08;;;;;;;44.20;24.90;;;;;;;7.10;59.72;100479.53;108110;1285;22096;-61
2023/02/18 01:10:43;;;;;;;43.60;25.40;;;;;;;7.15;59.94;100472.05;108104;1279;21994;-65
2023/02/18 01:13:11;;;;;;;43.80;24.90;;;;;;;7.19;59.91;100465.95;108107;1285;22008;-65
2023/02/18 01:15:38;;;;;;;46.10;24.90;;;;;;;7.23;59.98;100461.27;108087;1285;22001;-61
2023/02/18 01:18:06;;;;;;;48.90;26.50;;;;;;;7.21;60.49;100459.69;108156;1285;21992;-66
2023/02/18 01:20:36;;;;;;;45.40;25.60;;;;;;;7.23;60.81;100453.23;108139;1285;22743;-61
2023/02/18 01:23:04;;;;;;;48.50;25.50;;;;;;;7.25;60.06;100443.11;108087;1280;21990;-61
2023/02/18 01:25:30;;;;;;;45.90;26.00;;;;;;;7.24;60.00;100436.30;108146;1285;21986;-62
2023/02/18 01:27:57;;;;;;;45.60;26.50;;;;;;;7.24;59.83;100432.82;107436;1285;1002765;-61
2023/02/18 01:30:23;;;;;;;52.20;28.30;;;;;;;7.21;60.06;100432.63;108044;1285;21982;-65
2023/02/18 01:32:48;;;;;;;51.50;27.60;;;;;;;7.22;59.82;100429.48;108144;1274;21994;-61
2023/02/18 01:35:16;;;;;;;51.80;27.50;;;;;;;7.16;60.69;100423.71;108114;1278;22078;-61
2023/02/18 01:37:42;;;;;;;49.50;28.20;;;;;;;7.19;60.54;100419.02;108123;1285;21991;-62
2023/02/18 01:40:10;;;;;;;49.30;27.70;;;;;;;7.24;60.20;100413.09;108091;1285;21951;-61
2023/02/18 01:42:36;;;;;;;46.40;27.00;;;;;;;7.26;59.63;100407.52;108228;1284;21992;-65
2023/02/18 01:45:33;;;;;;;55.70;29.60;;;;;;;7.26;59.99;100402.45;108078;1285;22023;-65
2023/02/18 01:48:04;;;;;;;53.00;28.90;;;;;;;7.22;60.81;100397.38;108076;1285;21990;-62
2023/02/18 01:50:30;;;;;;;;;;;;;;;7.20;60.85;100393.54;108125;1286;21973;-64
2023/02/18 01:52:56;;;;;;;49.70;28.10;;;;;;;7.13;62.00;100384.61;108177;1286;22027;-66
2023/02/18 01:55:22;;;;;;;49.80;26.90;;;;;;;7.11;61.43;100378.67;107991;1286;21992;-61
2023/02/18 01:57:47;;;;;;;46.90;26.40;;;;;;;7.12;61.14;100374.67;108178;1286;21990;-61
2023/02/18 02:00:15;;;;;;;51.60;28.40;;;;;;;7.14;61.02;100368.39;108115;1286;22001;-65
2023/02/18 02:02:44;;;;;;;51.80;27.80;;;;;;;7.12;61.32;100364.38;108289;1285;22175;-65
2023/02/18 02:05:14;;;;;;;46.80;26.90;;;;;;;7.14;60.94;100361.94;108142;1286;21992;-64
2023/02/18 02:07:40;;;;;;;50.90;28.40;;;;;;;7.16;60.59;100362.80;108142;1286;21995;-61
2023/02/18 02:10:07;;;;;;;46.70;26.60;;;;;;;7.19;60.47;100361.25;105851;1285;1003109;-61
2023/02/18 02:12:35;;;;;;;44.60;27.10;;;;;;;7.22;60.33;100358.11;108153;1285;22043;-62
2023/02/18 02:15:10;;;;;;;48.60;26.60;;;;;;;7.23;60.15;100358.64;108107;1283;21996;-61
2023/02/18 02:18:23;;;;;;;55.10;31.20;;;;;;;7.23;60.71;100349.56;108115;1285;24377;-61
2023/02/18 02:21:08;;;;;;;53.50;29.00;;;;;;;7.19;61.13;100334.55;108126;1286;21995;-62
2023/02/18 02:24:24;;;;;;;47.90;28.10;;;;;;;7.18;60.49;100332.45;108115;1285;21990;-65
2023/02/18 02:27:23;;;;;;;50.40;28.30;;;;;;;7.17;60.57;100338.04;107987;1285;21995;-61
2023/02/18 02:30:07;;;;;;;50.30;28.30;;;;;;;7.12;61.62;100338.73;108187;1285;21993;-62
2023/02/18 02:33:08;;;;;;;48.10;28.10;;;;;;;7.11;60.80;100338.55;108137;1285;21987;-66
2023/02/18 02:35:58;;;;;;;49.50;27.80;;;;;;;7.09;61.02;100332.44;108207;1280;21992;-61
2023/02/18 02:38:28;;;;;;;48.50;28.00;;;;;;;7.09;60.39;100329.12;108140;1278;21988;-61
2023/02/18 02:40:59;;;;;;;53.10;28.80;;;;;;;7.10;60.34;100326.33;108250;1285;21992;-61
2023/02/18 02:43:25;;;;;;;46.40;28.00;;;;;;;7.12;60.56;100319.70;108125;1285;22000;-61
2023/02/18 02:46:09;;;;;;;45.60;27.70;;;;;;;7.13;61.30;100318.48;108131;1285;22002;-61
2023/02/18 02:48:50;;;;;;;45.00;27.90;;;;;;;7.16;61.81;100310.80;108137;1274;21994;-65
2023/02/18 02:51:34;;;;;;;;;;;;;;;7.19;61.82;100307.50;108141;1286;21978;-66
2023/02/18 02:54:15;;;;;;;47.70;28.90;;;;;;;7.21;61.64;100302.97;108126;1286;21998;-65
2023/02/18 02:56:41;;;;;;;43.80;27.20;;;;;;;7.22;61.72;100301.39;108166;1286;22225;-61
2023/02/18 02:59:08;;;;;;;47.60;28.10;;;;;;;7.23;61.65;100301.57;108177;1286;23640;-61
2023/02/18 03:01:57;;;;;;;47.10;27.90;;;;;;;7.24;61.63;100293.89;108150;1286;21957;-61
2023/02/18 03:04:52;;;;;;;48.20;28.50;;;;;;;7.25;62.07;100294.42;108122;1286;23760;-61
2023/02/18 03:07:18;;;;;;;43.60;26.80;;;;;;;7.28;62.08;100299.48;108194;1286;21996;-60
2023/02/18 03:10:00;;;;;;;47.40;28.30;;;;;;;7.30;62.10;100300.70;108175;1280;21995;-61
2023/02/18 03:12:32;;;;;;;47.90;28.70;;;;;;;7.33;61.97;100298.77;108167;1286;22459;-67
2023/02/18 03:15:15;;;;;;;50.80;30.10;;;;;;;7.32;62.21;100300.69;108136;1286;23712;-67
2023/02/18 03:18:14;;;;;;;47.30;28.50;;;;;;;7.33;61.89;100300.16;108112;1286;21992;-60
2023/02/18 03:20:46;;;;;;;45.30;28.80;;;;;;;7.36;61.84;100297.38;108016;1284;22030;-60
2023/02/18 03:23:15;;;;;;;45.90;27.30;;;;;;;7.40;61.64;100296.67;108222;1283;21980;-61
2023/02/18 03:25:41;;;;;;;46.40;27.90;;;;;;;7.43;61.55;100291.09;108146;1285;21992;-60
2023/02/18 03:28:16;;;;;;;46.80;29.20;;;;;;;7.45;61.51;100291.61;108106;1285;21988;-67
2023/02/18 03:30:45;;;;;;;45.40;28.00;;;;;;;7.46;61.72;100293.54;108145;1285;21991;-67
2023/02/18 03:33:14;;;;;;;45.20;29.10;;;;;;;7.46;61.96;100294.92;108109;1285;21996;-68
2023/02/18 03:35:40;;;;;;;45.70;28.40;;;;;;;7.46;62.09;100292.83;108102;1285;22026;-68
2023/02/18 03:38:13;;;;;;;48.70;29.30;;;;;;;7.48;61.81;100293.36;108084;1285;22006;-62
2023/02/18 03:40:39;;;;;;;48.90;29.70;;;;;;;7.49;61.67;100294.59;108119;1285;22028;-60
2023/02/18 03:43:04;;;;;;;47.40;29.10;;;;;;;7.51;61.76;100296.31;108068;1285;22029;-60
2023/02/18 03:45:31;;;;;;;46.70;29.70;;;;;;;7.52;61.84;100290.19;108116;1285;21986;-69
2023/02/18 03:48:02;;;;;;;41.90;25.30;;;;;;;7.53;61.82;100288.80;108079;1285;22185;-69
2023/02/18 03:50:27;;;;;;;45.60;30.00;;;;;;;7.53;61.98;100285.66;108111;1273;21987;-71
2023/02/18 03:52:53;;;;;;;47.00;29.70;;;;;;;7.53;62.01;100284.43;108242;1285;22268;-62
2023/02/18 03:55:19;;;;;;;44.90;28.60;;;;;;;7.54;62.38;100280.07;108319;1285;22029;-70
2023/02/18 03:57:44;;;;;;;45.40;27.40;;;;;;;7.56;62.22;100276.75;108075;1273;21994;-60
2023/02/18 04:00:11;;;;;;;41.90;27.80;;;;;;;7.58;62.31;100277.27;108052;1285;21987;-60
2023/02/18 04:02:37;;;;;;;47.40;29.70;;;;;;;7.59;62.47;100272.38;108086;1285;21992;-70
2023/02/18 04:05:04;;;;;;;44.00;27.90;;;;;;;7.58;62.46;100267.14;108222;1285;22450;-60
2023/02/18 04:07:29;;;;;;;47.00;29.20;;;;;;;7.60;62.57;100258.94;108222;1285;21995;-70
2023/02/18 04:09:58;;;;;;;42.00;28.00;;;;;;;7.60;62.92;100253.00;108102;1284;21996;-70
2023/02/18 04:12:23;;;;;;;43.70;27.50;;;;;;;7.60;62.79;100247.40;108131;1279;22032;-70
2023/02/18 04:14:49;;;;;;;43.10;28.90;;;;;;;7.59;62.64;100246.71;108107;1283;21994;-70
2023/02/18 04:17:17;;;;;;;42.40;26.20;;;;;;;7.54;63.10;100247.41;108225;1286;22261;-60
2023/02/18 04:19:43;;;;;;;45.70;28.10;;;;;;;7.54;63.31;100250.03;108090;1286;21994;-70
2023/02/18 04:22:09;;;;;;;49.30;30.50;;;;;;;7.54;63.73;100251.61;108128;1282;21998;-61
2023/02/18 04:24:37;;;;;;;45.40;29.00;;;;;;;7.55;63.86;100254.40;108120;1286;21992;-60
2023/02/18 04:27:02;;;;;;;48.60;29.10;;;;;;;7.57;64.07;100249.33;108164;1286;21993;-60
2023/02/18 04:29:28;;;;;;;41.00;26.50;;;;;;;7.60;63.91;100249.33;108164;1280;21994;-69
2023/02/18 04:31:54;;;;;;;46.80;27.30;;;;;;;7.63;64.11;100248.11;108078;1286;22028;-70
2023/02/18 04:34:21;;;;;;;43.00;27.90;;;;;;;7.65;64.61;100241.98;108072;1284;21989;-59
2023/02/18 04:36:47;;;;;;;42.00;26.60;;;;;;;7.67;64.67;100238.65;108131;1286;22003;-69
2023/02/18 04:39:12;;;;;;;40.20;26.90;;;;;;;7.68;65.16;100237.61;108142;1286;22452;-60
2023/02/18 04:41:38;;;;;;;46.70;27.90;;;;;;;7.69;65.15;100241.80;108142;1286;21993;-70
2023/02/18 04:44:04;;;;;;;44.90;27.50;;;;;;;7.70;65.81;100245.99;108139;1287;21995;-60
2023/02/18 04:46:30;;;;;;;42.20;26.80;;;;;;;7.71;65.61;100242.85;108129;1287;21983;-69
2023/02/18 04:49:00;;;;;;;31.70;20.10;;;;;;;7.72;65.56;100241.80;108170;1287;21997;-60
2023/02/18 04:51:25;;;;;;;41.20;25.50;;;;;;;7.71;65.96;100239.70;108137;1285;21984;-69
2023/02/18 04:53:55;;;;;;;42.80;26.10;;;;;;;7.72;66.02;100235.16;108144;1286;22005;-60
2023/02/18 04:56:20;;;;;;;46.50;28.20;;;;;;;7.72;65.93;100231.67;108191;1285;22039;-69
2023/02/18 04:58:46;;;;;;;40.30;25.80;;;;;;;7.73;65.73;100223.63;108257;1285;21998;-69
2023/02/18 05:01:12;;;;;;;42.50;27.50;;;;;;;7.75;65.61;100219.08;108061;1273;21994;-70
2023/02/18 05:03:38;;;;;;;43.10;27.30;;;;;;;7.82;65.28;100220.44;108045;1285;21989;-61
2023/02/18 05:06:04;;;;;;;40.50;26.50;;;;;;;7.83;65.28;100217.30;108084;1283;22008;-60
2023/02/18 05:08:31;;;;;;;42.30;27.00;;;;;;;7.85;65.68;100217.64;108101;1285;22004;-60
2023/02/18 05:11:04;;;;;;;41.20;25.40;;;;;;;7.85;66.13;100221.14;108136;1286;22001;-61
2023/02/18 05:13:30;;;;;;;42.50;27.00;;;;;;;7.84;65.91;100223.06;108146;1286;21994;-60
2023/02/18 05:15:56;;;;;;;41.20;26.20;;;;;;;7.81;66.14;100223.24;107358;1285;1002729;-70
2023/02/18 05:18:22;;;;;;;41.60;27.00;;;;;;;7.80;66.95;100221.86;108087;1286;22083;-60
2023/02/18 05:20:48;;;;;;;38.20;26.00;;;;;;;7.82;67.21;100218.01;108161;1285;22029;-68
2023/02/18 05:23:15;;;;;;;38.70;24.90;;;;;;;7.85;67.82;100216.07;108145;1286;22845;-60
2023/02/18 05:25:41;;;;;;;42.10;26.60;;;;;;;7.88;68.06;100210.46;108066;1285;21992;-61
2023/02/18 05:28:07;;;;;;;45.20;27.60;;;;;;;7.93;68.00;100205.05;108086;1285;22033;-61
2023/02/18 05:30:34;;;;;;;40.20;24.90;;;;;;;7.96;68.61;100198.38;108298;1286;21986;-60
2023/02/18 05:33:00;;;;;;;37.50;23.60;;;;;;;7.98;68.83;100185.60;108123;1286;22031;-59
2023/02/18 05:35:26;;;;;;;39.50;25.30;;;;;;;8.01;68.99;100180.36;108044;1286;21995;-68
2023/02/18 05:37:52;;;;;;;39.90;24.40;;;;;;;8.04;70.03;100184.71;108087;1286;21997;-60
2023/02/18 05:40:18;;;;;;;34.20;22.90;;;;;;;8.08;71.09;100188.89;108145;1286;21992;-60
2023/02/18 05:42:44;;;;;;;34.80;22.90;;;;;;;8.11;71.76;100186.25;108146;1286;22460;-71
2023/02/18 05:45:09;;;;;;;35.30;23.20;;;;;;;8.15;72.24;100184.30;108125;1286;22000;-70
2023/02/18 05:47:35;;;;;;;36.70;23.20;;;;;;;8.21;71.88;100184.63;108089;1286;21998;-60
2023/02/18 05:50:03;;;;;;;35.70;23.00;;;;;;;8.25;71.25;100174.98;108155;1286;21992;-70
2023/02/18 05:52:29;;;;;;;39.30;23.80;;;;;;;8.30;71.52;100173.55;108180;1286;21997;-60
2023/02/18 05:54:55;;;;;;;36.40;23.80;;;;;;;8.35;72.22;100172.31;108130;1286;22002;-60
2023/02/18 05:57:21;;;;;;;37.50;24.50;;;;;;;8.41;72.11;100172.77;108128;1276;21992;-60
2023/02/18 05:59:46;;;;;;;34.70;21.80;;;;;;;8.47;72.37;100170.31;108141;1279;22864;-60
2023/02/18 06:02:13;;;;;;;32.70;22.90;;;;;;;8.54;72.39;100163.81;108108;1274;21996;-60
2023/02/18 06:04:39;;;;;;;33.40;22.40;;;;;;;8.58;72.97;100163.26;108182;1285;21989;-70
2023/02/18 06:07:06;;;;;;;34.50;24.00;;;;;;;8.63;73.55;100157.10;108263;1285;21985;-60
2023/02/18 06:09:33;;;;;;;32.10;21.30;;;;;;;8.68;73.09;100147.62;108226;1280;21999;-59
2023/02/18 06:11:59;;;;;;;34.20;22.40;;;;;;;8.73;73.51;100143.20;108287;1285;21988;-60
2023/02/18 06:14:24;;;;;;;32.90;21.50;;;;;;;8.80;74.01;100139.83;108198;1285;22007;-59
2023/02/18 06:16:51;;;;;;;33.70;21.70;;;;;;;8.85;76.60;100137.33;108104;1285;21998;-60
2023/02/18 06:19:17;;;;;;;32.30;20.70;;;;;;;8.96;77.17;100140.73;108117;1285;21999;-69
2023/02/18 06:21:43;;;;;;;32.40;21.90;;;;;;;9.07;76.76;100133.61;108070;1285;21989;-69
2023/02/18 06:24:08;;;;;;;30.30;21.30;;;;;;;9.15;76.42;100126.17;108154;1285;21994;-60
2023/02/18 06:26:40;;;;;;;31.70;20.50;;;;;;;9.21;77.32;100122.27;108123;1285;22003;-70
2023/02/18 06:29:06;;;;;;;30.80;21.00;;;;;;;9.30;78.13;100120.23;108127;1285;23769;-60
2023/02/18 06:31:33;;;;;;;33.70;21.30;;;;;;;9.41;77.90;100119.06;108339;1285;21991;-69
2023/02/18 06:33:59;;;;;;;28.30;18.70;;;;;;;9.50;78.42;100124.58;108125;1285;21993;-69
2023/02/18 06:36:24;;;;;;;29.50;19.90;;;;;;;9.58;79.01;100118.87;108078;1285;21994;-69
2023/02/18 06:38:50;;;;;;;28.00;19.10;;;;;;;9.67;77.92;100117.54;108187;1285;21994;-69
2023/02/18 06:41:16;;;;;;;27.40;18.80;;;;;;;9.72;77.43;100115.02;108192;1285;22001;-68
2023/02/18 06:43:42;;;;;;;30.60;20.90;;;;;;;9.75;77.25;100114.27;108107;1285;21992;-68
2023/02/18 06:46:07;;;;;;;33.50;21.90;;;;;;;9.76;76.85;100110.73;108070;1285;22002;-69
2023/02/18 06:48:34;;;;;;;30.50;21.10;;;;;;;9.77;76.65;100113.19;108087;1285;21994;-68
2023/02/18 06:51:02;;;;;;;31.20;21.90;;;;;;;9.78;76.35;100109.48;108075;1285;22004;-69
2023/02/18 06:53:28;;;;;;;30.90;20.60;;;;;;;9.83;76.68;100109.43;108085;1285;21994;-60
2023/02/18 06:55:54;;;;;;;31.30;21.10;;;;;;;9.88;77.00;100112.70;108140;1285;22044;-69
2023/02/18 06:58:22;;;;;;;32.00;20.70;;;;;;;9.92;77.31;100111.60;108133;1283;21989;-68
2023/02/18 07:00:49;;;;;;;33.00;21.70;;;;;;;9.94;79.42;100102.98;108112;1285;21989;-61
2023/02/18 07:03:17;;;;;;;32.90;22.50;;;;;;;10.00;79.43;100098.17;108089;1285;22026;-60
2023/02/18 07:05:44;;;;;;;33.30;22.80;;;;;;;10.03;80.38;100095.83;107871;1273;303752;-60
2023/02/18 07:08:10;;;;;;;34.20;21.30;;;;;;;10.14;79.41;100094.98;108115;1273;21998;-68
2023/02/18 07:10:36;;;;;;;28.10;19.40;;;;;;;10.21;79.78;100097.84;108135;1285;22099;-60
2023/02/18 07:13:03;;;;;;;27.30;18.80;;;;;;;10.28;79.86;100086.68;108097;1285;22001;-68
2023/02/18 07:15:30;;;;;;;28.70;19.90;;;;;;;10.35;79.87;100083.61;108283;1285;23647;-68
2023/02/18 07:17:56;;;;;;;29.50;20.00;;;;;;;10.40;79.72;100080.91;108230;1285;21993;-61
2023/02/18 07:20:38;;;;;;;31.00;20.00;;;;;;;10.44;81.28;100076.83;108321;1273;21994;-60
2023/02/18 07:23:04;;;;;;;29.80;20.80;;;;;;;10.55;80.70;100072.25;108058;1285;21990;-61
2023/02/18 07:25:31;;;;;;;30.90;21.10;;;;;;;10.65;81.03;100068.22;108100;1285;22461;-60
2023/02/18 07:27:57;;;;;;;29.90;21.40;;;;;;;10.75;81.13;100063.14;108091;1285;22004;-68
2023/02/18 08:01:40;;;;;;;34.00;23.00;;;;;;;8.27;100.00;100053.76;107384;1292;548773;-61
2023/02/18 08:04:06;;;;;;;30.70;22.90;;;;;;;11.05;99.53;100039.36;107773;1294;22016;-60
2023/02/18 08:06:37;;;;;;;26.30;19.00;;;;;;;11.59;95.00;100032.85;107493;1295;22001;-67
2023/02/18 08:09:04;;;;;;;25.00;17.60;;;;;;;11.87;90.85;100033.26;107579;1295;23831;-68
2023/02/18 08:11:34;;;;;;;25.60;17.10;;;;;;;12.07;88.35;100033.00;107475;1295;21998;-61
2023/02/18 08:14:01;;;;;;;22.90;15.90;;;;;;;12.23;86.54;100033.87;107340;1293;214761;-67
2023/02/18 08:16:27;;;;;;;20.40;14.60;;;;;;;12.30;85.13;100031.41;107792;1293;21988;-67
2023/02/18 08:18:53;;;;;;;19.60;14.80;;;;;;;12.38;83.52;100025.57;107755;1293;22000;-66
2023/02/18 08:21:19;;;;;;;21.50;15.30;;;;;;;12.47;82.44;100022.70;107826;1293;22001;-61
2023/02/18 08:23:45;;;;;;;23.20;15.50;;;;;;;12.53;81.99;100021.52;107775;1293;21997;-66
2023/02/18 08:26:12;;;;;;;19.30;14.50;;;;;;;12.60;81.67;100019.21;107717;1291;22003;-67
2023/02/18 08:28:39;;;;;;;20.70;15.00;;;;;;;12.70;81.25;100017.73;107736;1291;21993;-67
2023/02/18 08:31:05;;;;;;;18.00;13.60;;;;;;;12.79;81.10;100014.48;107780;1288;21988;-61
2023/02/18 08:33:35;;;;;;;21.60;15.20;;;;;;;12.87;80.32;100011.06;107798;1291;22003;-67
2023/02/18 08:36:00;;;;;;;21.00;14.70;;;;;;;12.95;80.06;100003.99;107791;1291;23108;-66
2023/02/18 08:38:26;;;;;;;23.10;15.10;;;;;;;13.00;80.19;100000.86;107695;1291;21991;-64
2023/02/18 08:41:00;;;;;;;18.90;14.40;;;;;;;13.04;79.87;100000.76;107743;1291;21998;-62
2023/02/18 08:43:26;;;;;;;20.30;14.00;;;;;;;13.07;79.97;99999.08;107746;1291;21998;-67
2023/02/18 08:45:52;;;;;;;19.80;14.70;;;;;;;13.15;79.55;100001.66;107707;1291;21994;-62
2023/02/18 08:48:18;;;;;;;18.50;14.00;;;;;;;13.28;79.15;99995.32;107743;1291;21997;-63
2023/02/18 08:50:44;;;;;;;19.70;14.70;;;;;;;13.32;78.86;100000.46;107914;1290;21986;-62
2023/02/18 08:53:10;;;;;;;19.80;14.30;;;;;;;13.31;78.94;100001.21;107874;1290;22013;-67
2023/02/18 08:55:39;;;;;;;18.90;13.50;;;;;;;13.33;78.73;100005.39;107870;1290;21999;-67
2023/02/18 08:58:05;;;;;;;18.50;13.00;;;;;;;13.42;78.26;100006.02;107837;1290;23039;-63
2023/02/18 09:00:31;;;;;;;18.20;13.40;;;;;;;13.48;78.21;100004.41;107873;1290;21995;-62
2023/02/18 09:02:58;;;;;;;17.20;12.90;;;;;;;13.52;78.45;100003.08;107869;1290;21995;-66
2023/02/18 09:05:28;;;;;;;17.00;12.90;;;;;;;13.56;78.52;100002.25;107823;1290;21993;-62
2023/02/18 09:07:54;;;;;;;18.60;12.80;;;;;;;13.63;78.69;100001.34;107827;1290;22448;-66
2023/02/18 09:10:20;;;;;;;16.20;12.50;;;;;;;13.72;79.33;100001.23;107879;1290;21996;-63
2023/02/18 09:12:47;;;;;;;17.40;13.00;;;;;;;13.89;79.82;99998.21;107868;1290;21998;-66
2023/02/18 09:15:12;;;;;;;15.90;12.30;;;;;;;14.08;80.43;100004.14;107804;1290;22056;-62
2023/02/18 09:17:42;;;;;;;17.10;12.50;;;;;;;14.23;79.38;99997.47;107798;1290;22004;-67
2023/02/18 09:20:08;;;;;;;14.20;11.20;;;;;;;14.47;77.16;99997.02;107782;1290;21993;-63
2023/02/18 09:22:34;;;;;;;14.90;11.10;;;;;;;14.64;76.30;100002.59;107743;1290;22031;-63
2023/02/18 09:25:02;;;;;;;13.60;11.00;;;;;;;14.92;75.30;100001.80;107828;1290;22003;-64
2023/02/18 09:27:28;;;;;;;13.50;10.40;;;;;;;15.13;72.69;100001.41;107676;1290;22003;-64
2023/02/18 09:29:55;;;;;;;13.80;10.40;;;;;;;15.23;70.89;100006.71;107682;1290;22034;-64
2023/02/18 09:32:21;;;;;;;15.30;10.80;;;;;;;15.28;69.47;100010.39;107897;1290;22026;-64
2023/02/18 09:34:48;;;;;;;14.00;10.20;;;;;;;15.33;68.65;100005.27;107742;1290;21996;-64
2023/02/18 09:37:14;;;;;;;12.20;9.60;;;;;;;15.50;68.68;99997.17;107672;1290;22179;-66
2023/02/18 09:39:40;;;;;;;12.90;9.40;;;;;;;15.66;68.15;99994.10;107801;1290;21978;-67
2023/02/18 09:42:12;;;;;;;12.70;9.20;;;;;;;15.74;67.56;99999.95;107849;1290;22002;-65
2023/02/18 09:44:40;;;;;;;12.50;8.90;;;;;;;15.82;66.89;99985.52;107740;1290;22005;-65
2023/02/18 09:47:14;;;;;;;11.60;9.00;;;;;;;15.84;65.95;99978.71;107654;1290;22163;-66
2023/02/18 09:49:43;;;;;;;10.60;8.10;;;;;;;15.80;64.22;99976.77;107739;1290;21996;-67
2023/02/18 09:52:15;;;;;;;12.60;8.90;;;;;;;15.75;63.16;99975.34;107858;1290;24938;-65
2023/02/18 09:54:40;;;;;;;11.50;9.00;;;;;;;15.89;64.06;99969.13;107899;1278;22000;-66
2023/02/18 09:57:14;;;;;;;11.10;8.60;;;;;;;15.98;64.49;99966.48;107888;1291;21994;-67
2023/02/18 09:59:42;;;;;;;11.20;8.80;;;;;;;16.05;64.52;99966.73;107962;1285;23166;-65
2023/02/18 10:02:09;;;;;;;12.00;8.70;;;;;;;16.07;65.03;99958.86;107839;1290;22001;-66
2023/02/18 10:04:50;;;;;;;12.00;8.80;;;;;;;16.15;65.20;99952.86;107651;1290;22001;-66
2023/02/18 10:07:27;;;;;;;11.00;8.50;;;;;;;16.29;64.98;99947.34;107788;1290;23214;-67
2023/02/18 10:09:53;;;;;;;9.80;7.80;;;;;;;16.41;64.57;99943.29;107681;1291;22006;-65
2023/02/18 10:12:21;;;;;;;11.60;8.00;;;;;;;16.64;64.60;99938.56;107797;1290;23654;-67
2023/02/18 10:14:50;;;;;;;9.60;7.00;;;;;;;16.90;63.77;99933.15;107886;1291;21999;-64
2023/02/18 10:17:20;;;;;;;8.20;5.50;;;;;;;17.11;60.17;99924.23;107742;1291;22170;-66
2023/02/18 10:19:47;;;;;;;7.70;5.10;;;;;;;17.34;57.04;99922.62;107688;1287;22000;-68
2023/02/18 10:22:13;;;;;;;5.20;3.40;;;;;;;17.58;56.60;99907.62;107777;1291;21992;-65
2023/02/18 10:24:45;;;;;;;6.00;4.00;;;;;;;17.76;54.86;99898.79;107851;1290;21999;-66
2023/02/18 10:27:17;;;;;;;4.20;2.60;;;;;;;17.93;54.48;99890.65;107821;1280;22077;-65
2023/02/18 10:29:43;;;;;;;4.60;3.20;;;;;;;18.12;52.50;99892.55;107765;1290;23818;-66
2023/02/18 10:32:15;;;;;;;5.60;3.20;;;;;;;18.29;52.81;99896.33;107775;1290;22052;-64
2023/02/18 10:35:14;;;;;;;5.80;4.00;;;;;;;18.47;52.62;99900.91;107866;1291;22015;-68
2023/02/18 10:37:55;;;;;;;6.90;4.10;;;;;;;18.60;50.90;99896.31;107774;1291;22001;-67
2023/02/18 10:40:39;;;;;;;6.10;4.00;;;;;;;18.77;51.39;99895.39;107858;1291;22009;-66
2023/02/18 10:43:11;;;;;;;6.70;4.50;;;;;;;18.86;49.82;99895.42;107927;1291;21998;-66
2023/02/18 10:45:42;;;;;;;7.90;5.90;;;;;;;18.92;49.11;99903.14;107642;1291;21957;-66
2023/02/18 10:48:27;;;;;;;9.90;7.20;;;;;;;19.02;49.73;99901.85;107664;1291;22000;-67
2023/02/18 10:50:54;;;;;;;6.40;4.70;;;;;;;19.05;48.00;99899.90;107649;1291;23770;-66
2023/02/18 10:53:34;;;;;;;5.30;3.10;;;;;;;19.17;47.14;99901.09;107645;1291;22479;-66
2023/02/18 10:56:00;;;;;;;4.80;3.30;;;;;;;19.28;45.62;99899.20;107673;1291;23754;-66
2023/02/18 10:58:34;;;;;;;5.70;4.50;;;;;;;19.43;46.14;99906.53;107684;1291;22006;-67
2023/02/18 11:01:03;;;;;;;4.90;3.50;;;;;;;19.47;45.15;99913.80;107829;1290;21993;-67
2023/02/18 11:04:15;;;;;;;4.60;3.50;;;;;;;19.48;45.23;99909.09;107889;1289;22464;-68
2023/02/18 11:06:48;;;;;;;5.10;3.30;;;;;;;19.33;44.44;99912.98;107852;1290;21992;-68
2023/02/18 11:09:41;;;;;;;5.50;3.70;;;;;;;19.26;44.14;99924.94;107897;1290;21982;-67
2023/02/18 11:12:14;;;;;;;8.10;6.40;;;;;;;19.20;44.31;99916.40;107766;1290;22000;-67
2023/02/18 11:14:46;;;;;;;11.70;8.00;;;;;;;19.10;44.02;99924.40;108028;1290;21995;-67
2023/02/18 11:17:15;;;;;;;23.30;15.30;;;;;;;19.00;44.42;99925.99;107888;1290;23764;-67
2023/02/18 11:19:41;;;;;;;7.40;5.20;;;;;;;18.87;45.43;99925.41;107880;1288;22026;-66
2023/02/18 11:22:16;;;;;;;5.50;4.20;;;;;;;18.73;44.80;99923.48;107672;1290;23723;-67
2023/02/18 11:24:47;;;;;;;6.00;3.70;;;;;;;18.64;45.15;99922.55;107816;1290;22034;-67
2023/02/18 11:27:18;;;;;;;6.20;4.30;;;;;;;18.58;45.34;99917.33;107692;1290;22178;-67
2023/02/18 11:29:48;;;;;;;6.50;4.40;;;;;;;18.48;45.03;99920.91;107023;1290;1002266;-66
2023/02/18 11:32:15;;;;;;;5.40;4.10;;;;;;;18.31;44.50;99919.09;107787;1290;22469;-66
2023/02/18 11:34:41;;;;;;;6.50;3.80;;;;;;;18.23;44.42;99910.61;107702;1290;24169;-67
2023/02/18 11:37:09;;;;;;;5.50;4.10;;;;;;;18.27;44.21;99908.14;107873;1290;22002;-67
2023/02/18 11:39:36;;;;;;;11.70;3.90;;;;;;;18.39;44.88;99901.69;107814;1290;23661;-67
2023/02/18 11:42:04;;;;;;;4.20;2.80;;;;;;;18.44;43.92;99903.67;107844;1290;21997;-67
2023/02/18 11:44:35;;;;;;;4.70;3.10;;;;;;;18.50;44.06;99911.38;107872;1290;23131;-64
2023/02/18 11:47:02;;;;;;;4.20;3.00;;;;;;;18.51;43.89;99908.31;107683;1290;23870;-66
2023/02/18 11:49:28;;;;;;;5.50;3.20;;;;;;;18.41;43.66;99907.77;107809;1290;22001;-66
2023/02/18 11:52:02;;;;;;;6.80;4.70;;;;;;;18.33;44.22;99912.13;107897;1290;21992;-66
2023/02/18 11:54:30;;;;;;;6.90;4.50;;;;;;;18.29;45.00;99914.27;107994;1290;23001;-67